Virgo Phoenix — 3FMO8 — position and weather

sailwx.info

Track history (hours):
 
Tides and Currents Weather Stations Pressure Air Temp Water Temp Dewpoint Dewpoint Depression Visibility Wind Speed Wind Dir Waves Ship Positions

Virgo Phoenix

Last reported at 2017-May-21 07:05 UTC. Time now 2017-May-23 01:11 UTC.
Position N 31°47' E 120°58'.

Length 96 m; draft 6.7 m.

Type: Ship (hazmat cat C). MMSI: 370795000.

Date/timePositionNaut miles runAvg speedWind from/ knotsBaromVisibWave heightAir tempDewpointWater temp
2017-May-21 07:05N 31°47' E 120°58'910.5
2017-May-21 06:12N 31°43' E 121°08'211.5
2017-May-21 06:01N 31°41' E 121°10'611.1
2017-May-21 05:30N 31°38' E 121°15'611.0
2017-May-21 05:00N 31°34' E 121°20'0 0.4
2017-May-21 04:25N 31°34' E 121°20'0 0.2
2017-May-21 03:58N 31°34' E 121°20'0 0.1
2017-May-21 03:22N 31°34' E 121°20'0 0.0
2017-May-21 02:58N 31°34' E 121°20'0 0.0
2017-May-21 02:28N 31°34' E 121°20'0 0.4
2017-May-21 02:01N 31°34' E 121°20'5 9.7
2017-May-21 01:30N 31°31' E 121°24'611.8
2017-May-21 01:00N 31°26' E 121°29'4 8.0
2017-May-21 00:29N 31°24' E 121°33'4 8.6
2017-May-21 00:00N 31°22' E 121°38'5 9.1
2017-May-20 23:30N 31°20' E 121°42'611.4
2017-May-20 23:00N 31°15' E 121°46'510.5
2017-May-20 22:30N 31°11' E 121°50'611.8
2017-May-20 22:00N 31°08' E 121°56'510.1
2017-May-20 21:30N 31°05' E 122°01'611.2
2017-May-20 20:59N 31°04' E 122°07'611.0
2017-May-20 20:28N 31°03' E 122°14'3 7.4
2017-May-20 20:00N 31°03' E 122°18'511.1
2017-May-20 19:30N 31°02' E 122°24'811.7
2017-May-20 18:51N 30°60' E 122°33'7 1.3
2017-May-20 13:18N 30°60' E 122°42'  
2017-May-17 13:02N 35°15' E 139°46'113.5
2017-May-17 12:59N 35°16' E 139°46'613.3
2017-May-17 12:30N 35°22' E 139°42'612.8
2017-May-17 12:00N 35°27' E 139°47'813.8
2017-May-17 11:27N 35°31' E 139°55'2 0.2
2017-May-17 00:01N 35°32' E 139°57'010.1
2017-May-17 00:00N 35°31' E 139°57'611.3
2017-May-16 23:30N 35°28' E 139°51'612.0
2017-May-16 23:00N 35°24' E 139°46'612.2
2017-May-16 22:30N 35°18' E 139°45'613.0
2017-May-16 22:01N 35°11' E 139°47'  
Track history (hours):
 
Tides and Currents Weather Stations Pressure Air Temp Water Temp Dewpoint Dewpoint Depression Visibility Wind Speed Wind Dir Waves Ship Positions

Virgo Phoenix

Last reported at 2017-May-21 07:05 UTC. Time now 2017-May-23 01:11 UTC.
Position N 31°47' E 120°58'.

Length 96 m; draft 6.7 m.

Type: Ship (hazmat cat C). MMSI: 370795000.

Date/timePositionNaut miles runAvg speedWind from/ knotsBaromVisibWave heightAir tempDewpointWater temp
2017-May-21 07:05N 31°47' E 120°58'910.5
2017-May-21 06:12N 31°43' E 121°08'211.5
2017-May-21 06:01N 31°41' E 121°10'611.1
2017-May-21 05:30N 31°38' E 121°15'611.0
2017-May-21 05:00N 31°34' E 121°20'0 0.4
2017-May-21 04:25N 31°34' E 121°20'0 0.2
2017-May-21 03:58N 31°34' E 121°20'0 0.1
2017-May-21 03:22N 31°34' E 121°20'0 0.0
2017-May-21 02:58N 31°34' E 121°20'0 0.0
2017-May-21 02:28N 31°34' E 121°20'0 0.4
2017-May-21 02:01N 31°34' E 121°20'5 9.7
2017-May-21 01:30N 31°31' E 121°24'611.8
2017-May-21 01:00N 31°26' E 121°29'4 8.0
2017-May-21 00:29N 31°24' E 121°33'4 8.6
2017-May-21 00:00N 31°22' E 121°38'5 9.1
2017-May-20 23:30N 31°20' E 121°42'611.4
2017-May-20 23:00N 31°15' E 121°46'510.5
2017-May-20 22:30N 31°11' E 121°50'611.8
2017-May-20 22:00N 31°08' E 121°56'510.1
2017-May-20 21:30N 31°05' E 122°01'611.2
2017-May-20 20:59N 31°04' E 122°07'611.0
2017-May-20 20:28N 31°03' E 122°14'3 7.4
2017-May-20 20:00N 31°03' E 122°18'511.1
2017-May-20 19:30N 31°02' E 122°24'811.7
2017-May-20 18:51N 30°60' E 122°33'7 1.3
2017-May-20 13:18N 30°60' E 122°42'  
2017-May-17 13:02N 35°15' E 139°46'113.5
2017-May-17 12:59N 35°16' E 139°46'613.3
2017-May-17 12:30N 35°22' E 139°42'612.8
2017-May-17 12:00N 35°27' E 139°47'813.8
2017-May-17 11:27N 35°31' E 139°55'2 0.2
2017-May-17 00:01N 35°32' E 139°57'010.1
2017-May-17 00:00N 35°31' E 139°57'611.3
2017-May-16 23:30N 35°28' E 139°51'612.0
2017-May-16 23:00N 35°24' E 139°46'612.2
2017-May-16 22:30N 35°18' E 139°45'613.0
2017-May-16 22:01N 35°11' E 139°47'  

Dump ship's entire track history